sensor_id;sensor_type;location;lat;lon;timestamp;pressure;altitude;pressure_sealevel;temperature;humidity
20897;BME280;10608;42.600;23.398;2022-11-21T00:01:10;53317.69;;;-138.15;100.00
20897;BME280;10608;42.600;23.398;2022-11-21T00:03:36;53315.72;;;-138.15;100.00
20897;BME280;10608;42.600;23.398;2022-11-21T00:06:02;53345.31;;;-138.15;100.00
20897;BME280;10608;42.600;23.398;2022-11-21T00:08:29;53339.38;;;-138.15;100.00
20897;BME280;10608;42.600;23.398;2022-11-21T00:10:57;53323.59;;;-138.15;100.00
20897;BME280;10608;42.600;23.398;2022-11-21T00:13:23;53325.56;;;-138.15;100.00
20897;BME280;10608;42.600;23.398;2022-11-21T00:15:48;53359.13;;;-138.15;100.00
20897;BME280;10608;42.600;23.398;2022-11-21T00:18:14;53303.88;;;-138.15;100.00
20897;BME280;10608;42.600;23.398;2022-11-21T00:20:42;53343.31;;;-138.15;100.00
20897;BME280;10608;42.600;23.398;2022-11-21T00:23:08;53345.31;;;-138.15;100.00
20897;BME280;10608;42.600;23.398;2022-11-21T00:25:34;53329.53;;;-138.15;100.00
20897;BME280;10608;42.600;23.398;2022-11-21T00:27:59;53317.69;;;-138.15;100.00
20897;BME280;10608;42.600;23.398;2022-11-21T00:30:25;53341.34;;;-138.15;100.00
20897;BME280;10608;42.600;23.398;2022-11-21T00:32:51;53294.00;;;-138.15;100.00
20897;BME280;10608;42.600;23.398;2022-11-21T00:35:16;53345.31;;;-138.15;100.00
20897;BME280;10608;42.600;23.398;2022-11-21T00:37:42;53313.75;;;-138.15;100.00
20897;BME280;10608;42.600;23.398;2022-11-21T00:40:08;53357.13;;;-138.15;100.00
20897;BME280;10608;42.600;23.398;2022-11-21T00:42:33;53303.88;;;-138.15;100.00
20897;BME280;10608;42.600;23.398;2022-11-21T00:44:59;53351.22;;;-138.15;100.00
20897;BME280;10608;42.600;23.398;2022-11-21T00:47:24;53343.31;;;-138.15;100.00
20897;BME280;10608;42.600;23.398;2022-11-21T00:49:49;53333.47;;;-138.15;100.00
20897;BME280;10608;42.600;23.398;2022-11-21T00:52:16;53343.31;;;-138.15;100.00
20897;BME280;10608;42.600;23.398;2022-11-21T00:54:41;53323.59;;;-138.15;100.00
20897;BME280;10608;42.600;23.398;2022-11-21T00:57:07;53365.03;;;-138.15;100.00
20897;BME280;10608;42.600;23.398;2022-11-21T00:59:32;53313.75;;;-138.15;100.00
20897;BME280;10608;42.600;23.398;2022-11-21T01:01:58;53343.31;;;-138.15;100.00
20897;BME280;10608;42.600;23.398;2022-11-21T01:04:23;53294.00;;;-138.15;100.00
20897;BME280;10608;42.600;23.398;2022-11-21T01:06:49;53333.47;;;-138.15;100.00
20897;BME280;10608;42.600;23.398;2022-11-21T01:09:14;53357.13;;;-138.15;100.00
20897;BME280;10608;42.600;23.398;2022-11-21T01:11:40;53317.69;;;-138.15;100.00
20897;BME280;10608;42.600;23.398;2022-11-21T01:14:05;53335.44;;;-138.15;100.00
20897;BME280;10608;42.600;23.398;2022-11-21T01:16:31;53331.50;;;-138.15;100.00
20897;BME280;10608;42.600;23.398;2022-11-21T01:18:56;53329.53;;;-138.15;100.00
20897;BME280;10608;42.600;23.398;2022-11-21T01:21:30;53333.47;;;-138.15;100.00
20897;BME280;10608;42.600;23.398;2022-11-21T01:23:58;53301.91;;;-138.15;100.00
20897;BME280;10608;42.600;23.398;2022-11-21T01:26:26;53323.59;;;-138.15;100.00
20897;BME280;10608;42.600;23.398;2022-11-21T01:28:52;53319.66;;;-138.15;100.00
20897;BME280;10608;42.600;23.398;2022-11-21T01:33:44;53347.28;;;-138.15;100.00
20897;BME280;10608;42.600;23.398;2022-11-21T01:38:38;53317.69;;;-138.15;100.00
20897;BME280;10608;42.600;23.398;2022-11-21T01:41:04;53301.91;;;-138.15;100.00
20897;BME280;10608;42.600;23.398;2022-11-21T01:43:30;53294.00;;;-138.15;100.00
20897;BME280;10608;42.600;23.398;2022-11-21T01:45:57;53333.47;;;-138.15;100.00
20897;BME280;10608;42.600;23.398;2022-11-21T01:51:14;53321.63;;;-138.15;100.00
20897;BME280;10608;42.600;23.398;2022-11-21T01:53:43;53301.91;;;-138.15;100.00
20897;BME280;10608;42.600;23.398;2022-11-21T01:56:10;53353.19;;;-138.15;100.00
20897;BME280;10608;42.600;23.398;2022-11-21T01:58:37;53325.56;;;-138.15;100.00
20897;BME280;10608;42.600;23.398;2022-11-21T02:01:03;53317.69;;;-138.15;100.00
20897;BME280;10608;42.600;23.398;2022-11-21T02:03:31;53349.25;;;-138.15;100.00
20897;BME280;10608;42.600;23.398;2022-11-21T02:05:58;53345.31;;;-138.15;100.00
20897;BME280;10608;42.600;23.398;2022-11-21T02:08:25;53305.84;;;-138.15;100.00
20897;BME280;10608;42.600;23.398;2022-11-21T02:13:47;53321.63;;;-138.15;100.00
20897;BME280;10608;42.600;23.398;2022-11-21T02:16:13;53331.50;;;-138.15;100.00
20897;BME280;10608;42.600;23.398;2022-11-21T02:18:38;53321.63;;;-138.15;100.00
20897;BME280;10608;42.600;23.398;2022-11-21T02:21:12;53333.47;;;-138.15;100.00
20897;BME280;10608;42.600;23.398;2022-11-21T02:26:31;53349.25;;;-138.15;100.00
20897;BME280;10608;42.600;23.398;2022-11-21T02:28:57;53331.50;;;-138.15;100.00
20897;BME280;10608;42.600;23.398;2022-11-21T02:31:23;53335.44;;;-138.15;100.00
20897;BME280;10608;42.600;23.398;2022-11-21T02:33:48;53323.59;;;-138.15;100.00
20897;BME280;10608;42.600;23.398;2022-11-21T02:38:56;53345.31;;;-138.15;100.00
20897;BME280;10608;42.600;23.398;2022-11-21T02:41:22;53323.59;;;-138.15;100.00
20897;BME280;10608;42.600;23.398;2022-11-21T02:44:07;53365.03;;;-138.15;100.00
20897;BME280;10608;42.600;23.398;2022-11-21T02:46:34;53337.41;;;-138.15;100.00
20897;BME280;10608;42.600;23.398;2022-11-21T02:49:00;53345.31;;;-138.15;100.00
20897;BME280;10608;42.600;23.398;2022-11-21T02:51:28;53376.88;;;-138.15;100.00
20897;BME280;10608;42.600;23.398;2022-11-21T02:53:54;53341.34;;;-138.15;100.00
20897;BME280;10608;42.600;23.398;2022-11-21T02:56:19;53321.63;;;-138.15;100.00
20897;BME280;10608;42.600;23.398;2022-11-21T02:58:45;53365.03;;;-138.15;100.00
20897;BME280;10608;42.600;23.398;2022-11-21T03:01:10;53315.72;;;-138.15;100.00
20897;BME280;10608;42.600;23.398;2022-11-21T03:03:36;53331.50;;;-138.15;100.00
20897;BME280;10608;42.600;23.398;2022-11-21T03:06:01;53333.47;;;-138.15;100.00
20897;BME280;10608;42.600;23.398;2022-11-21T03:08:26;53313.75;;;-138.15;100.00
20897;BME280;10608;42.600;23.398;2022-11-21T03:10:52;53321.63;;;-138.15;100.00
20897;BME280;10608;42.600;23.398;2022-11-21T03:13:17;53313.75;;;-138.15;100.00
20897;BME280;10608;42.600;23.398;2022-11-21T03:15:43;53331.50;;;-138.15;100.00
20897;BME280;10608;42.600;23.398;2022-11-21T03:18:08;53294.00;;;-138.15;100.00
20897;BME280;10608;42.600;23.398;2022-11-21T03:20:33;53321.63;;;-138.15;100.00
20897;BME280;10608;42.600;23.398;2022-11-21T03:22:59;53303.88;;;-138.15;100.00
20897;BME280;10608;42.600;23.398;2022-11-21T03:25:25;53351.22;;;-138.15;100.00
20897;BME280;10608;42.600;23.398;2022-11-21T03:27:51;53333.47;;;-138.15;100.00
20897;BME280;10608;42.600;23.398;2022-11-21T03:30:21;53378.84;;;-138.15;100.00
20897;BME280;10608;42.600;23.398;2022-11-21T03:32:47;53315.72;;;-138.15;100.00
20897;BME280;10608;42.600;23.398;2022-11-21T03:35:12;53363.06;;;-138.15;100.00
20897;BME280;10608;42.600;23.398;2022-11-21T03:37:38;53343.31;;;-138.15;100.00
20897;BME280;10608;42.600;23.398;2022-11-21T03:40:04;53345.31;;;-138.15;100.00
20897;BME280;10608;42.600;23.398;2022-11-21T03:42:29;53331.50;;;-138.15;100.00
20897;BME280;10608;42.600;23.398;2022-11-21T03:44:55;53325.56;;;-138.15;100.00
20897;BME280;10608;42.600;23.398;2022-11-21T03:47:20;53331.50;;;-138.15;100.00
20897;BME280;10608;42.600;23.398;2022-11-21T03:49:46;53333.47;;;-138.15;100.00
20897;BME280;10608;42.600;23.398;2022-11-21T03:52:12;53343.31;;;-138.15;100.00
20897;BME280;10608;42.600;23.398;2022-11-21T03:54:37;53357.13;;;-138.15;100.00
20897;BME280;10608;42.600;23.398;2022-11-21T03:57:03;53333.47;;;-138.15;100.00
20897;BME280;10608;42.600;23.398;2022-11-21T03:59:28;53335.44;;;-138.15;100.00
20897;BME280;10608;42.600;23.398;2022-11-21T04:01:53;53333.47;;;-138.15;100.00
20897;BME280;10608;42.600;23.398;2022-11-21T04:04:19;53329.53;;;-138.15;100.00
20897;BME280;10608;42.600;23.398;2022-11-21T04:06:44;53301.91;;;-138.15;100.00
20897;BME280;10608;42.600;23.398;2022-11-21T04:09:10;53319.66;;;-138.15;100.00
20897;BME280;10608;42.600;23.398;2022-11-21T04:11:36;53317.69;;;-138.15;100.00
20897;BME280;10608;42.600;23.398;2022-11-21T04:14:02;53339.38;;;-138.15;100.00
20897;BME280;10608;42.600;23.398;2022-11-21T04:16:27;53359.13;;;-138.15;100.00
20897;BME280;10608;42.600;23.398;2022-11-21T04:18:52;53325.56;;;-138.15;100.00
20897;BME280;10608;42.600;23.398;2022-11-21T04:21:18;53284.16;;;-138.15;100.00
20897;BME280;10608;42.600;23.398;2022-11-21T04:23:43;53288.09;;;-138.15;100.00
20897;BME280;10608;42.600;23.398;2022-11-21T04:26:09;53325.56;;;-138.15;100.00
20897;BME280;10608;42.600;23.398;2022-11-21T04:28:34;53292.03;;;-138.15;100.00
20897;BME280;10608;42.600;23.398;2022-11-21T04:31:04;53341.34;;;-138.15;100.00
20897;BME280;10608;42.600;23.398;2022-11-21T04:33:30;53317.69;;;-138.15;100.00
20897;BME280;10608;42.600;23.398;2022-11-21T04:35:55;53341.34;;;-138.15;100.00
20897;BME280;10608;42.600;23.398;2022-11-21T04:38:20;53321.63;;;-138.15;81.18
20897;BME280;10608;42.600;23.398;2022-11-21T04:40:46;53301.91;;;-138.15;78.52
20897;BME280;10608;42.600;23.398;2022-11-21T04:43:11;53307.81;;;-138.15;77.59
20897;BME280;10608;42.600;23.398;2022-11-21T04:45:37;53311.75;;;-138.15;74.09
20897;BME280;10608;42.600;23.398;2022-11-21T04:48:02;53297.97;;;-138.15;76.02
20897;BME280;10608;42.600;23.398;2022-11-21T04:50:28;53309.78;;;-138.15;76.51
20897;BME280;10608;42.600;23.398;2022-11-21T04:52:55;53337.41;;;-138.15;75.80
20897;BME280;10608;42.600;23.398;2022-11-21T04:55:23;53313.75;;;-138.15;79.01
20897;BME280;10608;42.600;23.398;2022-11-21T04:57:49;53337.41;;;-138.15;81.71
20897;BME280;10608;42.600;23.398;2022-11-21T05:00:16;53290.06;;;-138.15;82.15
20897;BME280;10608;42.600;23.398;2022-11-21T05:02:43;53294.00;;;-138.15;77.17
20897;BME280;10608;42.600;23.398;2022-11-21T05:05:08;53313.75;;;-138.15;69.32
20897;BME280;10608;42.600;23.398;2022-11-21T05:07:34;53299.94;;;-138.15;74.00
20897;BME280;10608;42.600;23.398;2022-11-21T05:09:59;53282.19;;;-138.15;71.27
20897;BME280;10608;42.600;23.398;2022-11-21T05:12:25;53325.56;;;-138.15;77.15
20897;BME280;10608;42.600;23.398;2022-11-21T05:15:09;53329.53;;;-138.15;80.68
20897;BME280;10608;42.600;23.398;2022-11-21T05:17:39;53301.91;;;-138.15;80.58
20897;BME280;10608;42.600;23.398;2022-11-21T05:20:06;53337.41;;;-138.15;81.05
20897;BME280;10608;42.600;23.398;2022-11-21T05:22:31;53311.75;;;-138.15;83.21
20897;BME280;10608;42.600;23.398;2022-11-21T05:24:56;53278.22;;;-138.15;83.63
20897;BME280;10608;42.600;23.398;2022-11-21T05:27:22;53331.50;;;-138.15;85.10
20897;BME280;10608;42.600;23.398;2022-11-21T05:29:47;53337.41;;;-138.15;86.16
20897;BME280;10608;42.600;23.398;2022-11-21T05:32:13;53307.81;;;-138.15;86.29
20897;BME280;10608;42.600;23.398;2022-11-21T05:34:38;53290.06;;;-138.15;85.71
20897;BME280;10608;42.600;23.398;2022-11-21T05:37:04;53349.25;;;-138.15;86.78
20897;BME280;10608;42.600;23.398;2022-11-21T05:39:29;53278.22;;;-138.15;85.35
20897;BME280;10608;42.600;23.398;2022-11-21T05:41:55;53303.88;;;-138.15;86.68
20897;BME280;10608;42.600;23.398;2022-11-21T05:44:20;53333.47;;;-138.15;86.03
20897;BME280;10608;42.600;23.398;2022-11-21T05:46:46;53333.47;;;-138.15;82.87
20897;BME280;10608;42.600;23.398;2022-11-21T05:49:12;53367.00;;;-138.15;79.18
20897;BME280;10608;42.600;23.398;2022-11-21T05:51:37;53295.97;;;-138.15;79.32
20897;BME280;10608;42.600;23.398;2022-11-21T05:54:03;53329.53;;;-138.15;75.93
20897;BME280;10608;42.600;23.398;2022-11-21T05:56:29;53305.84;;;-138.15;78.21
20897;BME280;10608;42.600;23.398;2022-11-21T05:58:56;53349.25;;;-138.15;75.30
20897;BME280;10608;42.600;23.398;2022-11-21T06:01:22;53339.38;;;-138.15;76.43
20897;BME280;10608;42.600;23.398;2022-11-21T06:04:08;53295.97;;;-138.15;79.37
20897;BME280;10608;42.600;23.398;2022-11-21T06:06:35;53347.28;;;-138.15;78.96
20897;BME280;10608;42.600;23.398;2022-11-21T06:09:01;53327.53;;;-138.15;77.29
20897;BME280;10608;42.600;23.398;2022-11-21T06:11:27;53301.91;;;-138.15;78.37
20897;BME280;10608;42.600;23.398;2022-11-21T06:13:52;53309.78;;;-138.15;82.59
20897;BME280;10608;42.600;23.398;2022-11-21T06:16:18;53311.75;;;-138.15;83.88
20897;BME280;10608;42.600;23.398;2022-11-21T06:18:49;53301.91;;;-138.15;84.30
20897;BME280;10608;42.600;23.398;2022-11-21T06:21:26;53286.13;;;-138.15;84.64
20897;BME280;10608;42.600;23.398;2022-11-21T06:23:53;53333.47;;;-138.15;84.80
20897;BME280;10608;42.600;23.398;2022-11-21T06:26:22;53309.78;;;-138.15;85.60
20897;BME280;10608;42.600;23.398;2022-11-21T06:28:48;53315.72;;;-138.15;84.73
20897;BME280;10608;42.600;23.398;2022-11-21T06:31:15;53305.84;;;-138.15;85.82
20897;BME280;10608;42.600;23.398;2022-11-21T06:33:42;53329.53;;;-138.15;88.75
20897;BME280;10608;42.600;23.398;2022-11-21T06:36:13;53313.75;;;-138.15;86.07
20897;BME280;10608;42.600;23.398;2022-11-21T06:38:39;53325.56;;;-138.15;87.52
20897;BME280;10608;42.600;23.398;2022-11-21T06:41:12;53303.88;;;-138.15;88.97
20897;BME280;10608;42.600;23.398;2022-11-21T06:43:38;53337.41;;;-138.15;88.54
20897;BME280;10608;42.600;23.398;2022-11-21T06:46:04;53311.75;;;-138.15;85.99
20897;BME280;10608;42.600;23.398;2022-11-21T06:48:30;53333.47;;;-138.15;85.56
20897;BME280;10608;42.600;23.398;2022-11-21T06:50:56;53305.84;;;-138.15;87.48
20897;BME280;10608;42.600;23.398;2022-11-21T06:53:22;53286.13;;;-138.15;85.29
20897;BME280;10608;42.600;23.398;2022-11-21T06:55:47;53290.06;;;-138.15;88.39
20897;BME280;10608;42.600;23.398;2022-11-21T06:58:13;53325.56;;;-138.15;91.25
20897;BME280;10608;42.600;23.398;2022-11-21T07:00:38;53325.56;;;-138.15;91.25
20897;BME280;10608;42.600;23.398;2022-11-21T07:03:04;53333.47;;;-138.15;92.33
20897;BME280;10608;42.600;23.398;2022-11-21T07:05:29;53321.63;;;-138.15;93.66
20897;BME280;10608;42.600;23.398;2022-11-21T07:07:59;53290.06;;;-138.15;94.52
20897;BME280;10608;42.600;23.398;2022-11-21T07:10:25;53327.53;;;-138.15;95.96
20897;BME280;10608;42.600;23.398;2022-11-21T07:12:50;53341.34;;;-138.15;95.43
20897;BME280;10608;42.600;23.398;2022-11-21T07:15:34;53349.25;;;-138.15;95.44
20897;BME280;10608;42.600;23.398;2022-11-21T07:18:00;53341.34;;;-138.15;96.64
20897;BME280;10608;42.600;23.398;2022-11-21T07:20:26;53355.16;;;-138.15;96.94
20897;BME280;10608;42.600;23.398;2022-11-21T07:22:54;53309.78;;;-138.15;97.36
20897;BME280;10608;42.600;23.398;2022-11-21T07:25:20;53337.41;;;-138.15;98.44
20897;BME280;10608;42.600;23.398;2022-11-21T07:27:46;53317.69;;;-138.15;98.54
20897;BME280;10608;42.600;23.398;2022-11-21T07:30:12;53363.06;;;-138.15;98.44
20897;BME280;10608;42.600;23.398;2022-11-21T07:32:38;53297.97;;;-138.15;98.57
20897;BME280;10608;42.600;23.398;2022-11-21T07:35:03;53286.13;;;-138.15;100.00
20897;BME280;10608;42.600;23.398;2022-11-21T07:37:29;53313.75;;;-138.15;100.00
20897;BME280;10608;42.600;23.398;2022-11-21T07:39:54;53337.41;;;-138.15;100.00
20897;BME280;10608;42.600;23.398;2022-11-21T07:42:20;53321.63;;;-138.15;100.00
20897;BME280;10608;42.600;23.398;2022-11-21T07:44:45;53337.41;;;-138.15;100.00
20897;BME280;10608;42.600;23.398;2022-11-21T07:47:11;53321.63;;;-138.15;100.00
20897;BME280;10608;42.600;23.398;2022-11-21T07:49:36;53341.34;;;-138.15;100.00
20897;BME280;10608;42.600;23.398;2022-11-21T07:52:02;53325.56;;;-138.15;100.00
20897;BME280;10608;42.600;23.398;2022-11-21T07:54:27;53303.88;;;-138.15;100.00
20897;BME280;10608;42.600;23.398;2022-11-21T07:56:52;53363.06;;;-138.15;100.00
20897;BME280;10608;42.600;23.398;2022-11-21T07:59:18;53319.66;;;-138.15;100.00
20897;BME280;10608;42.600;23.398;2022-11-21T08:01:43;53345.31;;;-138.15;100.00
20897;BME280;10608;42.600;23.398;2022-11-21T08:04:09;53309.78;;;-138.15;100.00
20897;BME280;10608;42.600;23.398;2022-11-21T08:06:34;53335.44;;;-138.15;100.00
20897;BME280;10608;42.600;23.398;2022-11-21T08:09:00;53337.41;;;-138.15;100.00
20897;BME280;10608;42.600;23.398;2022-11-21T08:11:25;53337.41;;;-138.15;100.00
20897;BME280;10608;42.600;23.398;2022-11-21T08:13:51;53347.28;;;-138.15;100.00
20897;BME280;10608;42.600;23.398;2022-11-21T08:16:16;53329.53;;;-138.15;100.00
20897;BME280;10608;42.600;23.398;2022-11-21T08:18:41;53345.31;;;-138.15;100.00
20897;BME280;10608;42.600;23.398;2022-11-21T08:21:07;53290.06;;;-138.15;100.00
20897;BME280;10608;42.600;23.398;2022-11-21T08:23:32;53361.09;;;-138.15;100.00
20897;BME280;10608;42.600;23.398;2022-11-21T08:25:58;53317.69;;;-138.15;100.00
20897;BME280;10608;42.600;23.398;2022-11-21T08:28:23;53357.13;;;-138.15;100.00
20897;BME280;10608;42.600;23.398;2022-11-21T08:30:49;53357.13;;;-138.15;100.00
20897;BME280;10608;42.600;23.398;2022-11-21T08:33:14;53309.78;;;-138.15;100.00
20897;BME280;10608;42.600;23.398;2022-11-21T08:35:40;53376.88;;;-138.15;100.00
20897;BME280;10608;42.600;23.398;2022-11-21T08:38:07;53341.34;;;-138.15;100.00
20897;BME280;10608;42.600;23.398;2022-11-21T08:40:33;53335.44;;;-138.15;100.00
20897;BME280;10608;42.600;23.398;2022-11-21T08:43:00;53347.28;;;-138.15;100.00
20897;BME280;10608;42.600;23.398;2022-11-21T08:45:26;53317.69;;;-138.15;100.00
20897;BME280;10608;42.600;23.398;2022-11-21T08:47:52;53325.56;;;-138.15;100.00
20897;BME280;10608;42.600;23.398;2022-11-21T08:50:19;53294.00;;;-138.15;100.00
20897;BME280;10608;42.600;23.398;2022-11-21T08:52:44;53343.31;;;-138.15;100.00
20897;BME280;10608;42.600;23.398;2022-11-21T08:55:09;53321.63;;;-138.15;99.83
20897;BME280;10608;42.600;23.398;2022-11-21T08:57:38;53317.69;;;-138.15;100.00
20897;BME280;10608;42.600;23.398;2022-11-21T09:00:05;53361.09;;;-138.15;99.45
20897;BME280;10608;42.600;23.398;2022-11-21T09:02:31;53359.13;;;-138.15;98.75
20897;BME280;10608;42.600;23.398;2022-11-21T09:04:56;53325.56;;;-138.15;99.76
20897;BME280;10608;42.600;23.398;2022-11-21T09:07:22;53305.84;;;-138.15;99.62
20897;BME280;10608;42.600;23.398;2022-11-21T09:09:48;53329.53;;;-138.15;98.88
20897;BME280;10608;42.600;23.398;2022-11-21T09:12:13;53321.63;;;-138.15;95.75
20897;BME280;10608;42.600;23.398;2022-11-21T09:14:39;53317.69;;;-138.15;95.84
20897;BME280;10608;42.600;23.398;2022-11-21T09:17:23;53299.94;;;-138.15;99.49
20897;BME280;10608;42.600;23.398;2022-11-21T09:20:07;53341.34;;;-138.15;99.05
20897;BME280;10608;42.600;23.398;2022-11-21T09:22:33;53329.53;;;-138.15;97.19
20897;BME280;10608;42.600;23.398;2022-11-21T09:24:58;53339.38;;;-138.15;97.79
20897;BME280;10608;42.600;23.398;2022-11-21T09:27:24;53337.41;;;-138.15;96.65
20897;BME280;10608;42.600;23.398;2022-11-21T09:29:49;53325.56;;;-138.15;96.67
20897;BME280;10608;42.600;23.398;2022-11-21T09:32:15;53333.47;;;-138.15;98.55
20897;BME280;10608;42.600;23.398;2022-11-21T09:34:40;53345.31;;;-138.15;97.84
20897;BME280;10608;42.600;23.398;2022-11-21T09:37:06;53333.47;;;-138.15;96.17
20897;BME280;10608;42.600;23.398;2022-11-21T09:39:31;53345.31;;;-138.15;95.91
20897;BME280;10608;42.600;23.398;2022-11-21T09:42:07;53380.81;;;-138.15;93.70
20897;BME280;10608;42.600;23.398;2022-11-21T09:47:28;53319.66;;;-138.15;94.13
20897;BME280;10608;42.600;23.398;2022-11-21T09:49:59;53337.41;;;-138.15;94.86
20897;BME280;10608;42.600;23.398;2022-11-21T09:52:31;53301.91;;;-138.15;93.69
20897;BME280;10608;42.600;23.398;2022-11-21T09:55:04;53329.53;;;-138.15;94.95
20897;BME280;10608;42.600;23.398;2022-11-21T09:57:31;53321.63;;;-138.15;95.56
20897;BME280;10608;42.600;23.398;2022-11-21T09:59:57;53333.47;;;-138.15;95.92
20897;BME280;10608;42.600;23.398;2022-11-21T10:02:24;53372.91;;;-138.15;95.36
20897;BME280;10608;42.600;23.398;2022-11-21T10:04:50;53323.59;;;-138.15;96.24
20897;BME280;10608;42.600;23.398;2022-11-21T10:07:26;53297.97;;;-138.15;97.43
20897;BME280;10608;42.600;23.398;2022-11-21T10:13:05;53313.75;;;-138.15;97.89
20897;BME280;10608;42.600;23.398;2022-11-21T10:27:05;53378.84;;;-138.15;100.00
20897;BME280;10608;42.600;23.398;2022-11-21T10:29:43;53325.56;;;-138.15;100.00
20897;BME280;10608;42.600;23.398;2022-11-21T10:34:37;53307.81;;;-138.15;100.00
20897;BME280;10608;42.600;23.398;2022-11-21T10:37:13;53339.38;;;-138.15;100.00
20897;BME280;10608;42.600;23.398;2022-11-21T10:39:45;53337.41;;;-138.15;100.00
20897;BME280;10608;42.600;23.398;2022-11-21T10:42:35;53333.47;;;-138.15;100.00
20897;BME280;10608;42.600;23.398;2022-11-21T10:45:03;53317.69;;;-138.15;100.00
20897;BME280;10608;42.600;23.398;2022-11-21T10:47:42;53343.31;;;-138.15;100.00
20897;BME280;10608;42.600;23.398;2022-11-21T10:56:01;53353.19;;;-138.15;100.00
20897;BME280;10608;42.600;23.398;2022-11-21T10:58:47;53357.13;;;-138.15;100.00
20897;BME280;10608;42.600;23.398;2022-11-21T11:01:28;53359.13;;;-138.15;100.00
20897;BME280;10608;42.600;23.398;2022-11-21T11:04:15;53355.16;;;-138.15;100.00
20897;BME280;10608;42.600;23.398;2022-11-21T11:06:44;53357.13;;;-138.15;100.00
20897;BME280;10608;42.600;23.398;2022-11-21T11:09:33;53335.44;;;-138.15;100.00
20897;BME280;10608;42.600;23.398;2022-11-21T11:12:27;53317.69;;;-138.15;100.00
20897;BME280;10608;42.600;23.398;2022-11-21T11:15:23;53363.06;;;-138.15;99.13
20897;BME280;10608;42.600;23.398;2022-11-21T11:17:56;53333.47;;;-138.15;99.47
20897;BME280;10608;42.600;23.398;2022-11-21T11:20:37;53343.31;;;-138.15;100.00
20897;BME280;10608;42.600;23.398;2022-11-21T11:25:49;53365.03;;;-138.15;100.00
20897;BME280;10608;42.600;23.398;2022-11-21T11:28:16;53325.56;;;-138.15;100.00
20897;BME280;10608;42.600;23.398;2022-11-21T11:30:44;53333.47;;;-138.15;100.00
20897;BME280;10608;42.600;23.398;2022-11-21T11:33:32;53329.53;;;-138.15;100.00
20897;BME280;10608;42.600;23.398;2022-11-21T11:38:59;53331.50;;;-138.15;100.00
20897;BME280;10608;42.600;23.398;2022-11-21T11:44:58;53331.50;;;-138.15;100.00
20897;BME280;10608;42.600;23.398;2022-11-21T11:47:53;53317.69;;;-138.15;100.00
20897;BME280;10608;42.600;23.398;2022-11-21T11:50:23;53370.94;;;-138.15;100.00
20897;BME280;10608;42.600;23.398;2022-11-21T11:53:17;53341.34;;;-138.15;100.00
20897;BME280;10608;42.600;23.398;2022-11-21T11:55:57;53337.41;;;-138.15;100.00
20897;BME280;10608;42.600;23.398;2022-11-21T11:58:35;53353.19;;;-138.15;100.00
20897;BME280;10608;42.600;23.398;2022-11-21T12:01:15;53388.69;;;-138.15;99.90
20897;BME280;10608;42.600;23.398;2022-11-21T12:03:49;53333.47;;;-138.15;99.07
20897;BME280;10608;42.600;23.398;2022-11-21T12:06:27;53361.09;;;-138.15;99.38
20897;BME280;10608;42.600;23.398;2022-11-21T12:08:58;53374.91;;;-138.15;99.40
20897;BME280;10608;42.600;23.398;2022-11-21T12:20:35;53349.25;;;-138.15;99.78
20897;BME280;10608;42.600;23.398;2022-11-21T12:23:01;53329.53;;;-138.15;99.43
20897;BME280;10608;42.600;23.398;2022-11-21T12:25:32;53329.53;;;-138.15;99.33
20897;BME280;10608;42.600;23.398;2022-11-21T12:28:09;53333.47;;;-138.15;98.72
20897;BME280;10608;42.600;23.398;2022-11-21T12:30:56;53357.13;;;-138.15;97.91
20897;BME280;10608;42.600;23.398;2022-11-21T12:33:26;53335.44;;;-138.15;97.78
20897;BME280;10608;42.600;23.398;2022-11-21T12:36:16;53349.25;;;-138.15;98.43
20897;BME280;10608;42.600;23.398;2022-11-21T12:41:42;53329.53;;;-138.15;98.80
20897;BME280;10608;42.600;23.398;2022-11-21T12:44:43;53339.38;;;-138.15;98.64
20897;BME280;10608;42.600;23.398;2022-11-21T12:52:49;53355.16;;;-138.15;96.74
20897;BME280;10608;42.600;23.398;2022-11-21T12:55:36;53333.47;;;-138.15;95.82
20897;BME280;10608;42.600;23.398;2022-11-21T13:03:49;53333.47;;;-138.15;94.71
20897;BME280;10608;42.600;23.398;2022-11-21T13:06:23;53329.53;;;-138.15;93.24
20897;BME280;10608;42.600;23.398;2022-11-21T13:08:51;53341.34;;;-138.15;93.76
20897;BME280;10608;42.600;23.398;2022-11-21T13:11:26;53321.63;;;-138.15;95.02
20897;BME280;10608;42.600;23.398;2022-11-21T13:14:36;53339.38;;;-138.15;95.44
20897;BME280;10608;42.600;23.398;2022-11-21T13:27:54;53311.75;;;-138.15;97.18
20897;BME280;10608;42.600;23.398;2022-11-21T13:30:50;53335.44;;;-138.15;96.99
20897;BME280;10608;42.600;23.398;2022-11-21T13:36:13;53374.91;;;-138.15;94.87
20897;BME280;10608;42.600;23.398;2022-11-21T13:47:30;53333.47;;;-138.15;95.56
20897;BME280;10608;42.600;23.398;2022-11-21T14:00:59;53323.59;;;-138.15;96.85
20897;BME280;10608;42.600;23.398;2022-11-21T14:06:38;53341.34;;;-138.15;94.73
20897;BME280;10608;42.600;23.398;2022-11-21T14:09:23;53347.28;;;-138.15;95.02
20897;BME280;10608;42.600;23.398;2022-11-21T14:12:02;53351.22;;;-138.15;96.39
20897;BME280;10608;42.600;23.398;2022-11-21T14:17:12;53329.53;;;-138.15;96.37
20897;BME280;10608;42.600;23.398;2022-11-21T14:19:41;53329.53;;;-138.15;95.89
20897;BME280;10608;42.600;23.398;2022-11-21T14:28:06;53359.13;;;-138.15;95.94
20897;BME280;10608;42.600;23.398;2022-11-21T14:30:38;53341.34;;;-138.15;96.61
20897;BME280;10608;42.600;23.398;2022-11-21T14:33:27;53313.75;;;-138.15;97.37